sensor_id;sensor_type;location;lat;lon;timestamp;temperature;humidity
47600;DHT22;33323;52.124;6.018;2023-02-04T02:29:11;5.60;99.90
47600;DHT22;33323;52.124;6.018;2023-02-04T02:41:00;5.20;99.90
47600;DHT22;33323;52.124;6.018;2023-02-04T02:44:00;5.20;99.90
47600;DHT22;33323;52.124;6.018;2023-02-04T02:47:19;5.10;99.90
47600;DHT22;33323;52.124;6.018;2023-02-04T02:52:57;5.00;99.90
47600;DHT22;33323;52.124;6.018;2023-02-04T02:55:59;4.90;99.90
47600;DHT22;33323;52.124;6.018;2023-02-04T02:58:34;4.90;99.90
47600;DHT22;33323;52.124;6.018;2023-02-04T03:01:44;4.80;99.90
47600;DHT22;33323;52.124;6.018;2023-02-04T03:04:25;4.80;99.90
47600;DHT22;33323;52.124;6.018;2023-02-04T03:11:18;4.90;99.90
47600;DHT22;33323;52.124;6.018;2023-02-04T03:14:10;5.10;99.90
47600;DHT22;33323;52.124;6.018;2023-02-04T03:20:00;5.00;99.90
47600;DHT22;33323;52.124;6.018;2023-02-04T03:23:21;5.20;99.90
47600;DHT22;33323;52.124;6.018;2023-02-04T03:29:50;5.30;99.90
47600;DHT22;33323;52.124;6.018;2023-02-04T04:56:56;5.40;99.90
47600;DHT22;33323;52.124;6.018;2023-02-04T05:32:55;5.00;99.90
47600;DHT22;33323;52.124;6.018;2023-02-04T05:38:55;4.90;99.90
47600;DHT22;33323;52.124;6.018;2023-02-04T05:48:25;4.70;99.90
47600;DHT22;33323;52.124;6.018;2023-02-04T05:51:17;4.70;99.90
47600;DHT22;33323;52.124;6.018;2023-02-04T05:56:55;4.50;99.90
47600;DHT22;33323;52.124;6.018;2023-02-04T06:00:13;4.60;99.90
47600;DHT22;33323;52.124;6.018;2023-02-04T06:02:42;4.60;99.90
47600;DHT22;33323;52.124;6.018;2023-02-04T06:05:58;4.50;99.90
47600;DHT22;33323;52.124;6.018;2023-02-04T06:08:33;4.40;99.90
47600;DHT22;33323;52.124;6.018;2023-02-04T06:11:21;4.40;99.90
47600;DHT22;33323;52.124;6.018;2023-02-04T06:13:54;4.30;99.90
47600;DHT22;33323;52.124;6.018;2023-02-04T06:16:49;4.30;99.90
47600;DHT22;33323;52.124;6.018;2023-02-04T06:19:20;4.30;99.90
47600;DHT22;33323;52.124;6.018;2023-02-04T06:21:48;4.20;99.90
47600;DHT22;33323;52.124;6.018;2023-02-04T06:24:18;4.20;99.90
47600;DHT22;33323;52.124;6.018;2023-02-04T06:26:46;4.20;99.90
47600;DHT22;33323;52.124;6.018;2023-02-04T06:29:13;4.10;99.90
47600;DHT22;33323;52.124;6.018;2023-02-04T06:31:40;4.00;99.90
47600;DHT22;33323;52.124;6.018;2023-02-04T06:34:08;3.80;99.90
47600;DHT22;33323;52.124;6.018;2023-02-04T06:36:37;3.90;99.90
47600;DHT22;33323;52.124;6.018;2023-02-04T06:39:19;3.80;99.90
47600;DHT22;33323;52.124;6.018;2023-02-04T06:43:04;3.80;99.90
47600;DHT22;33323;52.124;6.018;2023-02-04T06:46:01;3.90;99.90
47600;DHT22;33323;52.124;6.018;2023-02-04T06:48:34;3.90;99.90
47600;DHT22;33323;52.124;6.018;2023-02-04T06:51:06;3.90;99.90
47600;DHT22;33323;52.124;6.018;2023-02-04T06:53:34;4.00;99.90
47600;DHT22;33323;52.124;6.018;2023-02-04T06:56:41;4.00;99.90
47600;DHT22;33323;52.124;6.018;2023-02-04T06:59:21;4.00;99.90
47600;DHT22;33323;52.124;6.018;2023-02-04T07:12:18;4.40;99.90
47600;DHT22;33323;52.124;6.018;2023-02-04T07:15:46;4.40;99.90
47600;DHT22;33323;52.124;6.018;2023-02-04T07:18:50;4.40;99.90
47600;DHT22;33323;52.124;6.018;2023-02-04T07:31:32;4.30;99.90
47600;DHT22;33323;52.124;6.018;2023-02-04T07:35:35;4.40;99.90
47600;DHT22;33323;52.124;6.018;2023-02-04T07:39:11;4.50;99.90
47600;DHT22;33323;52.124;6.018;2023-02-04T07:42:04;4.60;99.90
47600;DHT22;33323;52.124;6.018;2023-02-04T07:45:40;4.50;99.90
47600;DHT22;33323;52.124;6.018;2023-02-04T07:48:12;4.60;99.90
47600;DHT22;33323;52.124;6.018;2023-02-04T07:50:45;4.60;99.90
47600;DHT22;33323;52.124;6.018;2023-02-04T07:53:16;4.70;99.90
47600;DHT22;33323;52.124;6.018;2023-02-04T07:55:54;4.70;99.90
47600;DHT22;33323;52.124;6.018;2023-02-04T07:59:13;4.70;99.90
47600;DHT22;33323;52.124;6.018;2023-02-04T08:01:42;4.70;99.90
47600;DHT22;33323;52.124;6.018;2023-02-04T08:07:35;4.90;99.90
47600;DHT22;33323;52.124;6.018;2023-02-04T08:10:08;5.00;99.90
47600;DHT22;33323;52.124;6.018;2023-02-04T08:13:06;4.90;99.90
47600;DHT22;33323;52.124;6.018;2023-02-04T08:16:23;5.20;99.90
47600;DHT22;33323;52.124;6.018;2023-02-04T08:18:57;5.30;99.90
47600;DHT22;33323;52.124;6.018;2023-02-04T08:36:05;5.80;99.90
47600;DHT22;33323;52.124;6.018;2023-02-04T08:38:46;5.90;99.90
47600;DHT22;33323;52.124;6.018;2023-02-04T08:41:55;6.10;99.90
47600;DHT22;33323;52.124;6.018;2023-02-04T08:45:35;6.10;99.90
47600;DHT22;33323;52.124;6.018;2023-02-04T08:49:05;6.20;99.90
47600;DHT22;33323;52.124;6.018;2023-02-04T08:52:52;6.40;99.90
47600;DHT22;33323;52.124;6.018;2023-02-04T08:56:14;6.50;99.90
47600;DHT22;33323;52.124;6.018;2023-02-04T08:59:40;6.60;99.90
47600;DHT22;33323;52.124;6.018;2023-02-04T09:02:11;6.70;99.90
47600;DHT22;33323;52.124;6.018;2023-02-04T09:11:59;7.00;99.90
47600;DHT22;33323;52.124;6.018;2023-02-04T09:14:47;7.10;99.90
47600;DHT22;33323;52.124;6.018;2023-02-04T09:17:40;7.10;99.90
47600;DHT22;33323;52.124;6.018;2023-02-04T09:55:17;7.80;99.90
47600;DHT22;33323;52.124;6.018;2023-02-04T10:07:43;8.00;99.90
47600;DHT22;33323;52.124;6.018;2023-02-04T10:16:23;8.50;99.90
47600;DHT22;33323;52.124;6.018;2023-02-04T10:20:14;8.40;99.90
47600;DHT22;33323;52.124;6.018;2023-02-04T10:27:17;8.30;99.90
47600;DHT22;33323;52.124;6.018;2023-02-04T10:30:24;8.30;99.90
47600;DHT22;33323;52.124;6.018;2023-02-04T10:33:27;8.30;99.90
47600;DHT22;33323;52.124;6.018;2023-02-04T10:35:57;8.40;99.90
47600;DHT22;33323;52.124;6.018;2023-02-04T10:38:28;8.30;99.90
47600;DHT22;33323;52.124;6.018;2023-02-04T10:41:02;8.40;99.90
47600;DHT22;33323;52.124;6.018;2023-02-04T10:43:37;8.70;99.90
47600;DHT22;33323;52.124;6.018;2023-02-04T10:46:11;8.70;99.90
47600;DHT22;33323;52.124;6.018;2023-02-04T10:49:22;8.80;99.90
47600;DHT22;33323;52.124;6.018;2023-02-04T10:58:38;9.00;99.90
47600;DHT22;33323;52.124;6.018;2023-02-04T11:01:59;9.10;99.90
47600;DHT22;33323;52.124;6.018;2023-02-04T11:07:33;9.20;99.90
47600;DHT22;33323;52.124;6.018;2023-02-04T11:10:31;9.50;99.90
47600;DHT22;33323;52.124;6.018;2023-02-04T11:16:56;9.40;99.90
47600;DHT22;33323;52.124;6.018;2023-02-04T11:19:45;9.30;99.90
47600;DHT22;33323;52.124;6.018;2023-02-04T11:22:41;9.30;99.90
47600;DHT22;33323;52.124;6.018;2023-02-04T11:25:35;9.30;99.90
47600;DHT22;33323;52.124;6.018;2023-02-04T11:28:24;9.30;99.90
47600;DHT22;33323;52.124;6.018;2023-02-04T11:30:59;9.20;99.90
47600;DHT22;33323;52.124;6.018;2023-02-04T11:33:37;9.20;99.90
47600;DHT22;33323;52.124;6.018;2023-02-04T11:36:10;9.40;99.90
47600;DHT22;33323;52.124;6.018;2023-02-04T11:38:42;9.40;99.90
47600;DHT22;33323;52.124;6.018;2023-02-04T11:41:33;9.50;99.90
47600;DHT22;33323;52.124;6.018;2023-02-04T11:44:03;9.60;99.90
47600;DHT22;33323;52.124;6.018;2023-02-04T11:46:32;9.70;99.90
47600;DHT22;33323;52.124;6.018;2023-02-04T11:49:02;9.70;99.90
47600;DHT22;33323;52.124;6.018;2023-02-04T11:51:36;9.70;99.90
47600;DHT22;33323;52.124;6.018;2023-02-04T13:32:38;10.80;99.90
47600;DHT22;33323;52.124;6.018;2023-02-04T13:59:57;11.00;99.90
47600;DHT22;33323;52.124;6.018;2023-02-04T14:03:38;10.80;99.90
47600;DHT22;33323;52.124;6.018;2023-02-04T14:07:56;10.60;99.90
47600;DHT22;33323;52.124;6.018;2023-02-04T14:11:29;10.30;99.90
47600;DHT22;33323;52.124;6.018;2023-02-04T14:26:19;10.30;99.90
47600;DHT22;33323;52.124;6.018;2023-02-04T14:30:40;10.30;99.90
47600;DHT22;33323;52.124;6.018;2023-02-04T14:34:48;10.00;99.90
47600;DHT22;33323;52.124;6.018;2023-02-04T14:38:22;9.90;99.90
47600;DHT22;33323;52.124;6.018;2023-02-04T14:42:32;10.00;99.90
47600;DHT22;33323;52.124;6.018;2023-02-04T14:46:59;10.00;99.90
47600;DHT22;33323;52.124;6.018;2023-02-04T14:50:50;10.10;99.90
47600;DHT22;33323;52.124;6.018;2023-02-04T14:54:31;10.30;99.90
47600;DHT22;33323;52.124;6.018;2023-02-04T15:01:46;10.20;99.90
47600;DHT22;33323;52.124;6.018;2023-02-04T15:05:53;10.10;99.90
47600;DHT22;33323;52.124;6.018;2023-02-04T15:20:07;10.00;99.90
47600;DHT22;33323;52.124;6.018;2023-02-04T15:24:15;9.90;99.90
47600;DHT22;33323;52.124;6.018;2023-02-04T15:28:10;9.90;99.90
47600;DHT22;33323;52.124;6.018;2023-02-04T15:31:40;9.80;99.90
47600;DHT22;33323;52.124;6.018;2023-02-04T15:35:21;9.80;99.90
47600;DHT22;33323;52.124;6.018;2023-02-04T15:38:36;9.80;99.90
47600;DHT22;33323;52.124;6.018;2023-02-04T15:41:53;9.80;99.90
47600;DHT22;33323;52.124;6.018;2023-02-04T15:46:10;9.80;99.90
47600;DHT22;33323;52.124;6.018;2023-02-04T15:49:11;9.70;99.90
47600;DHT22;33323;52.124;6.018;2023-02-04T15:53:16;9.60;99.90
47600;DHT22;33323;52.124;6.018;2023-02-04T15:56:22;9.50;99.90
47600;DHT22;33323;52.124;6.018;2023-02-04T15:59:50;9.50;99.90
47600;DHT22;33323;52.124;6.018;2023-02-04T16:03:51;9.50;99.90
47600;DHT22;33323;52.124;6.018;2023-02-04T16:07:53;9.50;99.90
47600;DHT22;33323;52.124;6.018;2023-02-04T16:11:52;9.40;99.90
47600;DHT22;33323;52.124;6.018;2023-02-04T16:15:48;9.40;99.90
47600;DHT22;33323;52.124;6.018;2023-02-04T16:19:58;9.30;99.90
47600;DHT22;33323;52.124;6.018;2023-02-04T16:23:52;9.30;99.90
47600;DHT22;33323;52.124;6.018;2023-02-04T16:27:45;9.20;99.90
47600;DHT22;33323;52.124;6.018;2023-02-04T16:31:03;9.20;99.90
47600;DHT22;33323;52.124;6.018;2023-02-04T16:34:25;9.10;99.90
47600;DHT22;33323;52.124;6.018;2023-02-04T16:37:52;9.00;99.90
47600;DHT22;33323;52.124;6.018;2023-02-04T16:41:00;8.90;99.90
47600;DHT22;33323;52.124;6.018;2023-02-04T16:44:17;8.70;99.90
47600;DHT22;33323;52.124;6.018;2023-02-04T16:48:11;8.60;99.90
47600;DHT22;33323;52.124;6.018;2023-02-04T16:50:50;8.70;99.90
47600;DHT22;33323;52.124;6.018;2023-02-04T16:53:29;9.40;99.90
47600;DHT22;33323;52.124;6.018;2023-02-04T20:37:43;6.70;99.90
47600;DHT22;33323;52.124;6.018;2023-02-04T20:42:41;6.70;99.90
47600;DHT22;33323;52.124;6.018;2023-02-04T21:00:03;6.90;99.90
47600;DHT22;33323;52.124;6.018;2023-02-04T21:03:46;6.80;99.90
47600;DHT22;33323;52.124;6.018;2023-02-04T21:11:01;6.70;99.90
47600;DHT22;33323;52.124;6.018;2023-02-04T21:14:20;6.80;99.90
47600;DHT22;33323;52.124;6.018;2023-02-04T21:18:00;6.60;99.90
47600;DHT22;33323;52.124;6.018;2023-02-04T21:24:13;6.60;99.90
47600;DHT22;33323;52.124;6.018;2023-02-04T21:27:44;6.80;99.90
47600;DHT22;33323;52.124;6.018;2023-02-04T21:30:50;6.40;99.90
47600;DHT22;33323;52.124;6.018;2023-02-04T21:33:57;6.30;99.90
47600;DHT22;33323;52.124;6.018;2023-02-04T21:37:21;6.40;99.90
47600;DHT22;33323;52.124;6.018;2023-02-04T21:44:26;6.30;99.90
47600;DHT22;33323;52.124;6.018;2023-02-04T21:47:30;6.50;99.90
47600;DHT22;33323;52.124;6.018;2023-02-04T21:54:33;6.30;99.90
47600;DHT22;33323;52.124;6.018;2023-02-04T21:58:53;6.30;99.90
47600;DHT22;33323;52.124;6.018;2023-02-04T22:01:49;6.30;99.90
47600;DHT22;33323;52.124;6.018;2023-02-04T22:05:38;6.30;99.90
47600;DHT22;33323;52.124;6.018;2023-02-04T22:09:39;6.30;99.90
47600;DHT22;33323;52.124;6.018;2023-02-04T22:13:43;6.40;99.90
47600;DHT22;33323;52.124;6.018;2023-02-04T22:17:43;6.50;99.90
47600;DHT22;33323;52.124;6.018;2023-02-04T22:21:30;6.50;99.90
47600;DHT22;33323;52.124;6.018;2023-02-04T22:34:05;6.30;99.90
47600;DHT22;33323;52.124;6.018;2023-02-04T22:38:14;6.40;99.90
47600;DHT22;33323;52.124;6.018;2023-02-04T22:54:07;6.10;99.90
